createdAt,value
2018-03-02T00:02:07.540Z,32.92
2018-03-02T00:04:35.264Z,34.78
2018-03-02T00:07:03.008Z,39.30
2018-03-02T00:09:30.971Z,33.67
2018-03-02T00:11:58.749Z,39.15
2018-03-02T00:14:26.859Z,32.40
2018-03-02T00:16:54.650Z,33.40
2018-03-02T00:19:22.328Z,31.27
2018-03-02T00:21:50.072Z,34.03
2018-03-02T00:24:17.799Z,30.83
2018-03-02T00:26:45.535Z,33.17
2018-03-02T00:29:13.400Z,34.55
2018-03-02T00:31:41.141Z,27.67
2018-03-02T00:34:08.926Z,37.78
2018-03-02T00:39:10.751Z,35.42
2018-03-02T00:41:38.430Z,37.42
2018-03-02T00:44:06.162Z,33.15
2018-03-02T00:46:33.918Z,37.22
2018-03-02T00:49:01.655Z,33.67
2018-03-02T00:51:29.637Z,36.97
2018-03-02T00:53:57.371Z,43.83
2018-03-02T00:56:25.047Z,32.30
2018-03-02T00:58:52.886Z,34.00
2018-03-02T01:01:20.584Z,35.00
2018-03-02T01:03:48.603Z,34.28
2018-03-02T01:06:16.296Z,36.40
2018-03-02T01:08:44.027Z,38.85
2018-03-02T01:11:11.767Z,43.83
2018-03-02T01:13:39.439Z,39.33
2018-03-02T01:16:07.449Z,37.30
2018-03-02T01:18:35.205Z,31.15
2018-03-02T01:21:02.924Z,33.30
2018-03-02T01:23:30.683Z,42.58
2018-03-02T01:25:58.355Z,33.97
2018-03-02T01:28:26.244Z,33.75
2018-03-02T01:30:53.932Z,39.53
2018-03-02T01:33:21.666Z,30.85
2018-03-02T01:35:49.455Z,39.45
2018-03-02T01:38:17.188Z,34.60
2018-03-02T01:40:44.925Z,36.95
2018-03-02T01:43:12.627Z,37.00
2018-03-02T01:45:40.321Z,35.47
2018-03-02T01:48:08.104Z,40.67
2018-03-02T01:50:35.836Z,36.70
2018-03-02T01:53:03.607Z,36.47
2018-03-02T01:55:31.353Z,45.20
2018-03-02T01:57:59.040Z,36.08
2018-03-02T02:00:26.795Z,41.60
2018-03-02T02:02:54.481Z,33.03
2018-03-02T02:05:22.424Z,44.85
2018-03-02T02:07:50.107Z,51.63
2018-03-02T02:10:17.783Z,43.30
2018-03-02T02:12:45.479Z,40.40
2018-03-02T02:15:13.232Z,35.88
2018-03-02T02:17:40.987Z,41.08
2018-03-02T02:20:08.672Z,42.90
2018-03-02T02:22:36.351Z,31.23
2018-03-02T02:25:04.082Z,41.10
2018-03-02T02:27:32.153Z,37.97
2018-03-02T02:29:59.916Z,34.78
2018-03-02T02:32:27.614Z,30.55
2018-03-02T02:34:55.305Z,40.15
2018-03-02T02:37:23.056Z,41.00
2018-03-02T02:39:50.808Z,41.40
2018-03-02T02:42:18.741Z,38.95
2018-03-02T02:44:46.478Z,47.33
2018-03-02T02:47:14.221Z,38.22
2018-03-02T02:49:41.934Z,35.30
2018-03-02T02:52:09.678Z,35.92
2018-03-02T02:54:37.651Z,34.85
2018-03-02T02:57:05.375Z,39.92
2018-03-02T02:59:33.041Z,41.72
2018-03-02T03:02:00.792Z,36.45
2018-03-02T03:04:28.482Z,34.00
2018-03-02T03:06:56.260Z,34.53
2018-03-02T03:09:23.941Z,40.95
2018-03-02T03:11:51.618Z,41.10
2018-03-02T03:14:19.362Z,37.25
2018-03-02T03:16:47.048Z,41.95
2018-03-02T03:19:14.996Z,39.72
2018-03-02T03:21:42.708Z,33.42
2018-03-02T03:24:10.384Z,33.53
2018-03-02T03:26:38.156Z,52.20
2018-03-02T03:29:05.887Z,35.88
2018-03-02T03:31:33.808Z,43.28
2018-03-02T03:34:01.480Z,35.78
2018-03-02T03:36:29.180Z,48.15
2018-03-02T03:38:56.929Z,43.20
2018-03-02T03:41:24.664Z,38.72
2018-03-02T03:43:52.539Z,38.80
2018-03-02T03:46:20.224Z,52.33
2018-03-02T03:48:47.912Z,38.92
2018-03-02T03:51:15.761Z,42.13
2018-03-02T03:53:43.497Z,37.28
2018-03-02T03:56:11.235Z,38.22
2018-03-02T03:58:38.919Z,34.58
2018-03-02T04:01:06.590Z,54.92
2018-03-02T04:03:34.535Z,37.65
2018-03-02T04:06:02.217Z,47.83
2018-03-02T04:08:30.078Z,41.28
2018-03-02T04:10:57.804Z,40.63
2018-03-02T04:13:25.485Z,40.25
2018-03-02T04:15:53.181Z,41.42
2018-03-02T04:18:20.867Z,46.13
2018-03-02T04:20:48.934Z,42.22
2018-03-02T04:23:16.671Z,38.85
2018-03-02T04:25:44.427Z,35.08
2018-03-02T04:28:12.166Z,42.03
2018-03-02T04:30:39.853Z,37.25
2018-03-02T04:33:07.634Z,46.88
2018-03-02T04:35:35.367Z,48.78
2018-03-02T04:38:03.069Z,41.30
2018-03-02T04:40:30.944Z,41.20
2018-03-02T04:42:58.610Z,45.47
2018-03-02T04:45:26.551Z,40.72
2018-03-02T04:47:54.233Z,42.55
2018-03-02T04:50:21.922Z,44.33
2018-03-02T04:52:49.716Z,44.83
2018-03-02T04:55:17.392Z,38.88
2018-03-02T04:57:45.507Z,29.25
2018-03-02T05:00:13.199Z,40.88
2018-03-02T05:02:40.935Z,42.28
2018-03-02T05:05:08.640Z,43.33
2018-03-02T05:07:36.371Z,35.67
2018-03-02T05:10:04.348Z,35.55
2018-03-02T05:12:32.065Z,37.08
2018-03-02T05:14:59.744Z,38.00
2018-03-02T05:17:27.678Z,34.90
2018-03-02T05:19:55.398Z,51.08
2018-03-02T05:22:23.119Z,39.58
2018-03-02T05:24:50.847Z,37.25
2018-03-02T05:27:18.574Z,39.05
2018-03-02T05:29:46.335Z,38.88
2018-03-02T05:32:14.052Z,45.50
2018-03-02T05:34:41.995Z,35.70
2018-03-02T05:37:09.681Z,40.03
2018-03-02T05:39:37.411Z,42.58
2018-03-02T05:42:05.157Z,36.80
2018-03-02T05:44:32.949Z,36.60
2018-03-02T05:47:00.682Z,36.53
2018-03-02T05:49:28.371Z,35.63
2018-03-02T05:51:56.308Z,35.65
2018-03-02T05:54:24.059Z,34.15
2018-03-02T05:56:51.807Z,38.28
2018-03-02T05:59:19.583Z,36.20
2018-03-02T06:01:47.325Z,42.85
2018-03-02T06:04:15.021Z,42.95
2018-03-02T06:06:42.737Z,41.90
2018-03-02T06:09:10.466Z,38.75
2018-03-02T06:11:38.470Z,43.55
2018-03-02T06:14:06.151Z,40.03
2018-03-02T06:16:34.005Z,39.47
2018-03-02T06:19:01.690Z,37.25
2018-03-02T06:21:29.412Z,44.67
2018-03-02T06:23:57.406Z,49.50
2018-03-02T06:26:25.088Z,44.72
2018-03-02T06:28:53.189Z,40.50
2018-03-02T06:31:20.930Z,38.10
2018-03-02T06:33:48.610Z,43.95
2018-03-02T06:36:16.417Z,48.28
2018-03-02T06:38:44.151Z,34.83
2018-03-02T06:41:11.871Z,50.03
2018-03-02T06:43:39.570Z,39.30
2018-03-02T06:46:07.376Z,36.42
2018-03-02T06:48:35.343Z,36.55
2018-03-02T06:51:03.019Z,46.22
2018-03-02T06:53:30.699Z,45.40
2018-03-02T06:55:58.411Z,45.45
2018-03-02T06:58:26.154Z,46.92
2018-03-02T07:00:54.321Z,43.22
2018-03-02T07:03:22.007Z,40.28
2018-03-02T07:05:49.685Z,34.78
2018-03-02T07:08:17.479Z,38.22
2018-03-02T07:10:45.159Z,36.67
2018-03-02T07:13:13.145Z,40.78
2018-03-02T07:15:40.842Z,37.30
2018-03-02T07:18:08.548Z,36.95
2018-03-02T07:20:36.267Z,42.00
2018-03-02T07:23:03.973Z,38.20
2018-03-02T07:25:31.864Z,40.33
2018-03-02T07:27:59.587Z,41.08
2018-03-02T07:30:27.401Z,35.58
2018-03-02T07:32:55.171Z,44.45
2018-03-02T07:35:22.900Z,45.30
2018-03-02T07:37:50.811Z,40.70
2018-03-02T07:40:18.541Z,45.22
2018-03-02T07:42:46.262Z,54.88
2018-03-02T07:45:14.018Z,43.78
2018-03-02T07:47:41.699Z,37.67
2018-03-02T07:50:09.455Z,39.58
2018-03-02T07:52:37.139Z,41.83
2018-03-02T07:55:04.958Z,49.53
2018-03-02T07:57:32.671Z,35.28
2018-03-02T08:00:00.362Z,41.85
2018-03-02T08:02:28.284Z,48.72
2018-03-02T08:04:56.101Z,36.05
2018-03-02T08:07:23.787Z,34.75
2018-03-02T08:09:51.560Z,39.80
2018-03-02T08:12:19.311Z,39.08
2018-03-02T08:14:47.350Z,49.65
2018-03-02T08:17:15.053Z,51.58
2018-03-02T08:19:42.792Z,39.17
2018-03-02T08:22:10.592Z,50.08
2018-03-02T08:24:38.297Z,40.72
2018-03-02T08:27:06.281Z,34.42
2018-03-02T08:29:33.966Z,42.17
2018-03-02T08:32:01.650Z,41.00
2018-03-02T08:34:29.380Z,43.70
2018-03-02T08:36:57.134Z,41.22
2018-03-02T08:39:26.112Z,33.90
2018-03-02T08:41:54.045Z,40.83
2018-03-02T08:44:22.212Z,35.78
2018-03-02T08:46:49.996Z,33.70
2018-03-02T08:49:18.851Z,43.72
2018-03-02T08:51:47.014Z,36.13
2018-03-02T08:54:14.695Z,48.17
2018-03-02T08:56:42.379Z,46.00
2018-03-02T08:59:10.078Z,46.10
2018-03-02T09:01:37.846Z,32.28
2018-03-02T09:04:05.928Z,41.60
2018-03-02T09:06:33.631Z,50.08
2018-03-02T09:09:01.304Z,38.40
2018-03-02T09:11:29.646Z,41.97
2018-03-02T09:13:57.397Z,43.28
2018-03-02T09:16:25.427Z,40.53
2018-03-02T09:18:53.173Z,44.78
2018-03-02T09:21:20.899Z,42.67
2018-03-02T09:23:48.721Z,40.12
2018-03-02T09:26:16.407Z,46.45
2018-03-02T09:28:44.546Z,39.88
2018-03-02T09:31:12.361Z,39.30
2018-03-02T09:33:40.098Z,47.92
2018-03-02T09:36:10.176Z,48.47
2018-03-02T09:38:41.445Z,38.35
2018-03-02T09:41:10.183Z,45.65
2018-03-02T09:43:38.583Z,38.77
2018-03-02T09:46:06.249Z,43.23
2018-03-02T09:48:33.952Z,39.90
2018-03-02T09:51:02.271Z,44.67
2018-03-02T09:53:30.257Z,54.55
2018-03-02T09:55:58.021Z,42.72
2018-03-02T09:58:25.763Z,43.08
2018-03-02T10:00:53.457Z,44.35
2018-03-02T10:03:21.154Z,44.90
2018-03-02T10:05:49.091Z,39.83
2018-03-02T10:08:16.765Z,46.13
2018-03-02T10:10:51.729Z,46.92
2018-03-02T10:13:19.740Z,42.38
2018-03-02T10:15:47.462Z,56.30
2018-03-02T10:18:15.200Z,41.15
2018-03-02T10:20:42.920Z,43.30
2018-03-02T10:23:10.646Z,46.37
2018-03-02T10:25:38.388Z,40.95
2018-03-02T10:28:06.424Z,42.85
2018-03-02T10:30:34.183Z,43.72
2018-03-02T10:33:01.899Z,45.65
2018-03-02T10:35:29.608Z,47.53
2018-03-02T10:37:57.299Z,44.35
2018-03-02T10:40:25.368Z,45.08
2018-03-02T10:42:55.199Z,42.97
2018-03-02T10:45:22.926Z,42.92
2018-03-02T10:47:50.662Z,40.47
2018-03-02T10:50:18.390Z,42.03
2018-03-02T10:52:50.066Z,41.30
2018-03-02T10:55:18.044Z,46.28
2018-03-02T10:57:46.112Z,44.95
2018-03-02T11:00:13.996Z,45.50
2018-03-02T11:02:47.222Z,60.22
2018-03-02T11:05:15.000Z,43.38
2018-03-02T11:07:42.773Z,53.80
2018-03-02T11:10:10.942Z,42.55
2018-03-02T11:12:38.999Z,45.67
2018-03-02T11:15:07.767Z,44.60
2018-03-02T11:17:35.846Z,55.83
2018-03-02T11:20:03.593Z,50.90
2018-03-02T11:22:32.113Z,44.15
2018-03-02T11:24:59.945Z,45.12
2018-03-02T11:27:27.675Z,36.33
2018-03-02T11:29:55.744Z,48.42
2018-03-02T11:32:23.424Z,40.25
2018-03-02T11:34:51.176Z,41.40
2018-03-02T11:37:18.929Z,48.63
2018-03-02T11:39:46.614Z,39.83
2018-03-02T11:42:14.843Z,37.47
2018-03-02T11:44:42.756Z,47.35
2018-03-02T11:47:10.484Z,46.40
2018-03-02T11:49:38.192Z,37.95
2018-03-02T11:52:05.951Z,52.55
2018-03-02T11:54:33.754Z,46.85
2018-03-02T11:57:02.338Z,43.90
2018-03-02T11:59:31.166Z,49.53
2018-03-02T12:01:59.610Z,53.38
2018-03-02T12:04:27.672Z,47.50
2018-03-02T12:06:55.455Z,40.33
2018-03-02T12:09:23.274Z,53.25
2018-03-02T12:11:52.307Z,54.88
2018-03-02T12:14:20.415Z,40.53
2018-03-02T12:16:48.819Z,56.08
2018-03-02T12:19:16.725Z,35.97
2018-03-02T12:21:46.136Z,43.30
2018-03-02T12:24:13.808Z,52.88
2018-03-02T12:26:41.555Z,74.43
2018-03-02T12:29:12.648Z,42.05
2018-03-02T12:31:40.919Z,47.88
2018-03-02T12:34:08.596Z,49.38
2018-03-02T12:36:36.290Z,49.08
2018-03-02T12:39:06.990Z,40.80
2018-03-02T12:41:35.024Z,52.50
2018-03-02T12:44:03.302Z,48.47
2018-03-02T12:46:38.534Z,46.35
2018-03-02T12:49:06.887Z,38.67
2018-03-02T12:51:34.597Z,40.53
2018-03-02T12:54:02.303Z,39.55
2018-03-02T12:56:30.281Z,39.88
2018-03-02T12:58:58.800Z,43.35
2018-03-02T13:01:27.791Z,45.58
2018-03-02T13:03:57.183Z,44.42
2018-03-02T13:06:26.173Z,46.20
2018-03-02T13:09:07.317Z,48.05
2018-03-02T13:11:37.512Z,46.75
2018-03-02T13:14:06.581Z,47.40
2018-03-02T13:16:34.855Z,40.50
2018-03-02T13:19:02.881Z,45.33
2018-03-02T13:21:30.875Z,49.90
2018-03-02T13:23:59.198Z,45.03
2018-03-02T13:29:31.779Z,39.17
2018-03-02T13:32:00.114Z,49.43
2018-03-02T13:34:42.758Z,46.90
2018-03-02T13:37:10.553Z,52.20
2018-03-02T13:39:49.962Z,47.37
2018-03-02T13:42:18.356Z,50.27
2018-03-02T13:44:46.718Z,39.83
2018-03-02T13:47:14.695Z,47.80
2018-03-02T13:49:54.336Z,43.30
2018-03-02T13:52:22.212Z,48.17
2018-03-02T13:54:50.367Z,49.97
2018-03-02T14:00:24.923Z,52.93
2018-03-02T14:03:04.777Z,50.07
2018-03-02T14:05:32.838Z,48.42
2018-03-02T14:08:01.329Z,43.03
2018-03-02T14:10:29.111Z,47.28
2018-03-02T14:12:57.044Z,48.70
2018-03-02T14:15:25.031Z,48.03
2018-03-02T14:17:53.473Z,47.60
2018-03-02T14:20:21.670Z,60.58
2018-03-02T14:22:49.380Z,50.72
2018-03-02T14:25:17.098Z,49.83
2018-03-02T14:27:44.985Z,48.92
2018-03-02T14:30:12.842Z,46.85
2018-03-02T14:32:41.008Z,54.80
2018-03-02T14:35:08.766Z,42.65
2018-03-02T14:37:36.476Z,50.38
2018-03-02T14:40:04.225Z,47.10
2018-03-02T14:42:32.224Z,46.58
2018-03-02T14:45:00.356Z,49.63
2018-03-02T14:47:28.029Z,43.72
2018-03-02T14:49:55.722Z,49.42
2018-03-02T14:52:23.632Z,50.85
2018-03-02T14:54:51.381Z,43.53
2018-03-02T14:57:19.224Z,48.90
2018-03-02T14:59:48.177Z,53.42
2018-03-02T15:02:15.974Z,50.95
2018-03-02T15:04:44.193Z,50.03
2018-03-02T15:07:11.966Z,45.88
2018-03-02T15:09:39.929Z,50.15
2018-03-02T15:12:07.935Z,50.17
2018-03-02T15:14:35.889Z,52.88
2018-03-02T15:17:03.677Z,47.78
2018-03-02T15:19:31.402Z,54.67
2018-03-02T15:21:59.368Z,54.13
2018-03-02T15:24:27.439Z,47.55
2018-03-02T15:26:55.112Z,45.80
2018-03-02T15:29:22.974Z,55.60
2018-03-02T15:31:50.932Z,57.30
2018-03-02T15:34:19.115Z,52.88
2018-03-02T15:36:47.178Z,50.88
2018-03-02T15:39:14.928Z,51.05
2018-03-02T15:41:42.640Z,43.83
2018-03-02T15:44:11.673Z,43.15
2018-03-02T15:46:40.849Z,45.33
2018-03-02T15:49:08.528Z,52.00
2018-03-02T15:51:36.267Z,49.80
2018-03-02T15:54:03.956Z,44.15
2018-03-02T15:56:31.637Z,54.28
2018-03-02T15:58:59.398Z,46.75
2018-03-02T16:01:27.438Z,51.78
2018-03-02T16:03:55.146Z,49.75
2018-03-02T16:06:22.845Z,60.33
2018-03-02T16:08:50.528Z,56.22
2018-03-02T16:11:18.335Z,48.65
2018-03-02T16:13:46.072Z,52.45
2018-03-02T16:16:14.092Z,46.90
2018-03-02T16:18:44.659Z,50.08
2018-03-02T16:21:12.357Z,47.03
2018-03-02T16:23:40.301Z,50.03
2018-03-02T16:26:08.011Z,50.20
2018-03-02T16:28:35.766Z,50.28
2018-03-02T16:31:12.273Z,44.33
2018-03-02T16:33:40.123Z,47.62
2018-03-02T16:36:08.228Z,52.35
2018-03-02T16:38:35.923Z,50.12
2018-03-02T16:41:03.623Z,61.72
2018-03-02T16:43:31.313Z,51.60
2018-03-02T16:45:58.987Z,47.80
2018-03-02T16:48:26.899Z,50.67
2018-03-02T16:50:54.678Z,52.97
2018-03-02T16:53:22.373Z,48.08
2018-03-02T16:55:50.091Z,55.75
2018-03-02T16:58:17.816Z,50.67
2018-03-02T17:00:46.005Z,53.00
2018-03-02T17:03:13.762Z,48.97
2018-03-02T17:05:41.504Z,55.60
2018-03-02T17:08:09.224Z,57.40
2018-03-02T17:10:36.970Z,52.05
2018-03-02T17:13:04.692Z,50.15
2018-03-02T17:15:32.422Z,49.72
2018-03-02T17:18:00.164Z,54.47
2018-03-02T17:20:27.876Z,50.75
2018-03-02T17:22:55.557Z,49.30
2018-03-02T17:25:23.306Z,45.58
2018-03-02T17:27:50.980Z,50.83
2018-03-02T17:30:18.861Z,53.13
2018-03-02T17:32:46.656Z,51.55
2018-03-02T17:35:14.346Z,47.80
2018-03-02T17:37:42.194Z,48.83
2018-03-02T17:40:09.920Z,43.53
2018-03-02T17:42:37.624Z,48.95
2018-03-02T17:45:05.318Z,42.53
2018-03-02T17:47:33.225Z,45.92
2018-03-02T17:50:00.943Z,54.72
2018-03-02T17:52:28.666Z,54.53
2018-03-02T17:54:56.412Z,52.55
2018-03-02T17:57:24.089Z,48.50
2018-03-02T17:59:51.851Z,42.92
2018-03-02T18:02:19.549Z,49.63
2018-03-02T18:04:47.328Z,51.15
2018-03-02T18:07:15.019Z,56.88
2018-03-02T18:09:42.785Z,58.97
2018-03-02T18:12:10.535Z,47.72
2018-03-02T18:14:38.272Z,48.65
2018-03-02T18:17:06.034Z,52.97
2018-03-02T18:19:33.761Z,44.15
2018-03-02T18:22:01.491Z,50.53
2018-03-02T18:24:29.233Z,63.58
2018-03-02T18:26:56.970Z,42.90
2018-03-02T18:29:25.159Z,55.50
2018-03-02T18:31:52.841Z,53.53
2018-03-02T18:34:20.576Z,60.35
2018-03-02T18:36:48.339Z,60.88
2018-03-02T18:39:16.065Z,48.85
2018-03-02T18:41:43.767Z,48.38
2018-03-02T18:44:11.448Z,46.33
2018-03-02T18:46:39.216Z,52.10
2018-03-02T18:49:06.968Z,52.40
2018-03-02T18:51:34.716Z,55.97
2018-03-02T18:54:02.442Z,51.58
2018-03-02T18:56:30.509Z,53.33
2018-03-02T18:58:58.236Z,52.65
2018-03-02T19:01:26.222Z,51.78
2018-03-02T19:03:53.928Z,52.62
2018-03-02T19:06:21.626Z,47.25
2018-03-02T19:08:49.378Z,49.40
2018-03-02T19:11:17.095Z,47.50
2018-03-02T19:13:44.868Z,49.00
2018-03-02T19:16:12.615Z,49.13
2018-03-02T19:18:40.458Z,62.72
2018-03-02T19:21:08.168Z,47.30
2018-03-02T19:23:35.877Z,55.75
2018-03-02T19:26:03.662Z,52.00
2018-03-02T19:28:31.454Z,54.03
2018-03-02T19:30:59.452Z,50.20
2018-03-02T19:33:27.408Z,54.47
2018-03-02T19:35:55.428Z,47.13
2018-03-02T19:38:23.226Z,50.35
2018-03-02T19:40:51.261Z,54.67
2018-03-02T19:43:19.430Z,55.05
2018-03-02T19:45:47.432Z,54.78
2018-03-02T19:48:15.678Z,55.25
2018-03-02T19:50:43.459Z,54.22
2018-03-02T19:53:11.311Z,57.10
2018-03-02T19:55:39.279Z,51.92
2018-03-02T19:58:07.256Z,43.92
2018-03-02T20:00:35.111Z,65.45
2018-03-02T20:03:02.995Z,52.38
2018-03-02T20:05:30.956Z,49.92
2018-03-02T20:07:58.822Z,54.50
2018-03-02T20:10:27.513Z,46.83
2018-03-02T20:12:55.482Z,47.80
2018-03-02T20:15:23.325Z,53.75
2018-03-02T20:17:51.121Z,53.15
2018-03-02T20:20:18.824Z,64.70
2018-03-02T20:22:46.704Z,52.50
2018-03-02T20:25:14.602Z,49.92
2018-03-02T20:27:42.461Z,44.05
2018-03-02T20:30:10.190Z,50.90
2018-03-02T20:32:37.874Z,51.33
2018-03-02T20:35:05.605Z,53.67
2018-03-02T20:37:33.284Z,64.82
2018-03-02T20:40:01.048Z,50.45
2018-03-02T20:42:28.735Z,43.03
2018-03-02T20:44:56.444Z,48.55
2018-03-02T20:47:24.137Z,54.53
2018-03-02T20:49:51.881Z,59.13
2018-03-02T20:52:19.564Z,55.75
2018-03-02T20:54:47.275Z,52.05
2018-03-02T20:57:14.959Z,56.72
2018-03-02T20:59:42.661Z,50.35
2018-03-02T21:02:10.485Z,57.65
2018-03-02T21:04:38.189Z,48.22
2018-03-02T21:07:05.877Z,54.85
2018-03-02T21:09:33.570Z,63.47
2018-03-02T21:12:01.286Z,53.00
2018-03-02T21:14:28.981Z,45.03
2018-03-02T21:16:56.676Z,50.05
2018-03-02T21:19:24.409Z,60.80
2018-03-02T21:21:53.632Z,56.00
2018-03-02T21:24:21.394Z,58.15
2018-03-02T21:26:49.136Z,66.30
2018-03-02T21:29:16.881Z,54.75
2018-03-02T21:31:44.619Z,55.58
2018-03-02T21:34:12.320Z,62.83
2018-03-02T21:36:40.025Z,59.33
2018-03-02T21:39:07.695Z,49.55
2018-03-02T21:41:35.396Z,63.58
2018-03-02T21:44:03.083Z,61.10
2018-03-02T21:46:30.778Z,60.65
2018-03-02T21:48:58.482Z,57.30
2018-03-02T21:51:26.591Z,54.55
2018-03-02T21:53:54.269Z,60.83
2018-03-02T21:56:21.949Z,60.03
2018-03-02T21:58:49.657Z,66.70
2018-03-02T22:01:17.421Z,60.63
2018-03-02T22:03:45.115Z,57.35
2018-03-02T22:06:12.784Z,62.85
2018-03-02T22:08:40.465Z,63.67
2018-03-02T22:11:08.168Z,51.37
2018-03-02T22:13:35.839Z,53.47
2018-03-02T22:16:03.708Z,55.53
2018-03-02T22:18:31.388Z,57.88
2018-03-02T22:20:59.100Z,59.75
2018-03-02T22:23:26.812Z,56.83
2018-03-02T22:25:54.487Z,60.72
2018-03-02T22:28:22.237Z,60.88
2018-03-02T22:30:49.919Z,48.25
2018-03-02T22:33:17.607Z,51.28
2018-03-02T22:35:45.313Z,64.07
2018-03-02T22:38:12.980Z,56.42
2018-03-02T22:40:40.684Z,57.97
2018-03-02T22:43:08.375Z,58.40
2018-03-02T22:45:36.273Z,63.17
2018-03-02T22:48:03.954Z,70.85
2018-03-02T22:50:31.626Z,67.05
2018-03-02T22:52:59.318Z,68.65
2018-03-02T22:55:27.000Z,57.35
2018-03-02T22:57:54.700Z,54.78
2018-03-02T23:00:22.384Z,60.55
2018-03-02T23:02:50.418Z,57.30
2018-03-02T23:05:18.101Z,67.75
2018-03-02T23:07:45.784Z,60.20
2018-03-02T23:10:13.485Z,68.40
2018-03-02T23:12:41.229Z,67.50
2018-03-02T23:15:08.943Z,54.85
2018-03-02T23:17:36.663Z,65.53
2018-03-02T23:20:04.871Z,55.63
2018-03-02T23:22:32.767Z,73.87
2018-03-02T23:25:00.463Z,66.70
2018-03-02T23:27:28.161Z,62.85
2018-03-02T23:29:55.851Z,63.22
2018-03-02T23:32:23.603Z,61.83
2018-03-02T23:34:51.358Z,75.93
2018-03-02T23:37:19.113Z,68.15
2018-03-02T23:39:46.805Z,72.03
2018-03-02T23:42:14.550Z,61.33
2018-03-02T23:44:42.285Z,76.57
2018-03-02T23:47:10.045Z,71.40
2018-03-02T23:49:37.726Z,63.28
2018-03-02T23:52:05.428Z,64.55
2018-03-02T23:54:33.162Z,71.97
2018-03-02T23:57:00.852Z,68.22
2018-03-02T23:59:28.584Z,72.72
